Time;durP1;ratioP1;P1;durP2;ratioP2;P2;SDS_P1;SDS_P2;PMS_P1;PMS_P2;Temp;Humidity;BMP_temperature;BMP_pressure;BME280_temperature;BME280_humidity;BME280_pressure;Samples;Min_cycle;Max_cycle;Signal;HPM_P1;HPM_P2
2021/07/01 00:01:11;;;;;;;7.97;4.57;;;15.60;87.70;;;;;;4981111;28;20514;-80
2021/07/01 00:03:37;;;;;;;9.10;5.57;;;15.60;88.10;;;;;;4982010;28;20443;-80
2021/07/01 00:06:03;;;;;;;9.27;5.40;;;15.70;88.30;;;;;;4982419;28;20406;-80
2021/07/01 00:08:29;;;;;;;7.57;5.70;;;15.60;88.20;;;;;;4983392;28;20503;-80
2021/07/01 00:10:54;;;;;;;8.40;5.87;;;15.60;88.20;;;;;;4991115;28;20175;-80
2021/07/01 00:13:20;;;;;;;7.33;4.73;;;15.60;88.20;;;;;;5002308;28;20176;-81
2021/07/01 00:15:46;;;;;;;10.13;5.97;;;15.60;87.70;;;;;;4998074;28;20542;-81
2021/07/01 00:18:12;;;;;;;9.60;5.43;;;15.60;88.00;;;;;;4984406;28;20188;-82
2021/07/01 00:20:38;;;;;;;15.90;5.50;;;15.60;87.80;;;;;;5011880;28;20168;-81
2021/07/01 00:23:04;;;;;;;8.60;5.80;;;15.70;87.90;;;;;;5003658;28;20218;-82
2021/07/01 00:25:30;;;;;;;6.50;4.73;;;15.70;87.50;;;;;;5002470;28;20478;-81
2021/07/01 00:27:55;;;;;;;12.97;5.40;;;15.60;86.70;;;;;;5003582;28;20464;-81
2021/07/01 00:30:22;;;;;;;7.77;5.30;;;15.70;87.30;;;;;;5003079;28;20170;-80
2021/07/01 00:32:49;;;;;;;6.43;4.77;;;15.60;86.70;;;;;;5001238;28;20228;-81
2021/07/01 00:35:16;;;;;;;5.40;3.83;;;15.60;86.20;;;;;;5001823;28;20437;-81
2021/07/01 00:37:43;;;;;;;6.60;4.60;;;15.70;86.30;;;;;;5002919;28;20434;-80
2021/07/01 00:40:11;;;;;;;9.83;5.47;;;15.60;85.80;;;;;;5007726;28;21038;-81
2021/07/01 00:42:37;;;;;;;10.40;4.57;;;15.60;85.60;;;;;;5006216;28;20426;-82
2021/07/01 00:45:05;;;;;;;6.40;5.20;;;15.70;85.20;;;;;;5005435;28;20406;-81
2021/07/01 00:47:32;;;;;;;10.40;4.37;;;15.70;85.10;;;;;;5007749;28;20454;-81
2021/07/01 00:50:02;;;;;;;5.37;3.80;;;15.70;84.80;;;;;;5007649;28;21057;-81
2021/07/01 00:52:28;;;;;;;6.13;4.30;;;15.70;84.60;;;;;;5016308;28;20470;-80
2021/07/01 00:54:54;;;;;;;9.90;4.63;;;15.70;84.50;;;;;;5018801;28;20422;-81
2021/07/01 00:57:22;;;;;;;7.83;4.57;;;15.70;84.90;;;;;;5006817;28;20446;-80
2021/07/01 00:59:48;;;;;;;7.30;4.37;;;15.70;85.00;;;;;;5008003;28;20421;-81
2021/07/01 01:02:14;;;;;;;6.10;4.60;;;15.70;84.70;;;;;;5006051;28;20868;-81
2021/07/01 01:04:40;;;;;;;5.73;4.40;;;15.70;85.00;;;;;;5004674;28;20405;-81
2021/07/01 01:07:06;;;;;;;10.07;5.63;;;15.60;85.10;;;;;;5003769;28;20208;-80
2021/07/01 01:09:32;;;;;;;8.37;5.10;;;15.60;85.20;;;;;;5005066;28;20178;-79
2021/07/01 01:11:58;;;;;;;10.23;4.63;;;15.60;85.30;;;;;;5004439;28;20279;-80
2021/07/01 01:14:24;;;;;;;9.20;5.70;;;15.60;85.30;;;;;;5004902;28;20403;-82
2021/07/01 01:16:56;;;;;;;7.47;5.30;;;15.60;85.50;;;;;;5004056;28;20541;-80
2021/07/01 01:19:22;;;;;;;11.07;6.37;;;15.60;85.80;;;;;;5018595;28;20469;-82
2021/07/01 01:21:48;;;;;;;13.37;6.13;;;15.60;86.10;;;;;;5003050;28;20174;-80
2021/07/01 01:24:16;;;;;;;9.47;6.40;;;15.60;86.60;;;;;;5001299;28;20203;-79
2021/07/01 01:26:42;;;;;;;9.33;6.47;;;15.60;87.00;;;;;;4993725;28;20454;-79
2021/07/01 01:29:08;;;;;;;9.47;6.23;;;15.50;87.80;;;;;;5001889;28;20426;-80
2021/07/01 01:31:36;;;;;;;11.87;6.53;;;15.50;88.30;;;;;;5009493;28;20401;-80
2021/07/01 01:34:04;;;;;;;10.17;6.30;;;15.40;88.40;;;;;;5004516;28;20415;-80
2021/07/01 01:36:30;;;;;;;11.17;5.40;;;15.40;88.40;;;;;;5004091;28;20398;-80
2021/07/01 01:38:56;;;;;;;8.70;6.70;;;15.40;88.80;;;;;;5004301;28;20968;-80
2021/07/01 01:41:37;;;;;;;12.60;7.10;;;15.30;89.20;;;;;;5004385;28;20419;-80
2021/07/01 01:44:03;;;;;;;10.23;6.33;;;15.30;89.80;;;;;;5002986;28;20498;-80
2021/07/01 01:46:37;;;;;;;10.97;7.10;;;15.30;90.10;;;;;;5019575;28;20493;-80
2021/07/01 01:49:05;;;;;;;10.73;6.87;;;15.30;90.20;;;;;;5002855;28;20438;-80
2021/07/01 01:51:33;;;;;;;8.73;6.47;;;15.20;90.00;;;;;;5021045;28;20438;-79
2021/07/01 01:54:00;;;;;;;10.40;6.97;;;15.20;90.20;;;;;;5007909;28;20477;-79
2021/07/01 01:56:36;;;;;;;8.50;6.10;;;15.20;90.00;;;;;;4985419;28;20415;-80
2021/07/01 01:59:08;;;;;;;10.90;6.57;;;15.20;90.20;;;;;;5010837;23;20478;-77
2021/07/01 02:01:51;;;;;;;6.87;5.20;;;15.20;90.10;;;;;;5034952;28;20432;-75
2021/07/01 02:04:29;;;;;;;8.50;5.53;;;15.20;90.00;;;;;;5035362;28;20397;-78
2021/07/01 02:06:56;;;;;;;9.13;5.97;;;15.20;89.50;;;;;;5036839;28;21014;-77
2021/07/01 02:09:27;;;;;;;7.70;5.27;;;15.30;89.00;;;;;;5043388;28;20414;-78
2021/07/01 02:11:53;;;;;;;7.87;6.37;;;15.30;88.70;;;;;;5044922;28;20484;-77
2021/07/01 02:14:21;;;;;;;8.30;5.77;;;15.30;88.50;;;;;;5043967;28;20432;-78
2021/07/01 02:17:11;;;;;;;9.40;5.93;;;15.40;88.30;;;;;;5020754;28;20434;-76
2021/07/01 02:19:36;;;;;;;9.97;5.67;;;15.50;88.00;;;;;;5070198;28;20444;-77
2021/07/01 02:22:04;;;;;;;8.60;5.70;;;15.50;87.80;;;;;;5049108;28;20175;-77
2021/07/01 02:24:32;;;;;;;7.70;5.07;;;15.50;87.70;;;;;;5034314;28;20437;-77
2021/07/01 02:26:58;;;;;;;9.10;5.20;;;15.50;87.60;;;;;;5035225;28;20570;-78
2021/07/01 02:29:25;;;;;;;8.90;5.40;;;15.40;87.30;;;;;;5032385;28;20422;-77
2021/07/01 02:31:58;;;;;;;10.90;5.53;;;15.40;87.50;;;;;;5032777;28;20480;-77
2021/07/01 02:34:24;;;;;;;9.60;6.27;;;15.40;87.60;;;;;;5034411;28;20413;-77
2021/07/01 02:37:19;;;;;;;8.60;5.10;;;15.40;87.60;;;;;;5051673;28;20436;-78
2021/07/01 02:39:54;;;;;;;8.43;4.63;;;15.50;87.60;;;;;;5041661;28;20954;-78
2021/07/01 02:42:21;;;;;;;9.87;6.23;;;15.50;87.10;;;;;;5038718;28;20417;-78
2021/07/01 02:44:46;;;;;;;7.63;5.23;;;15.50;86.80;;;;;;5018846;28;20998;-77
2021/07/01 02:47:48;;;;;;;6.77;5.53;;;15.50;87.50;;;;;;5015359;28;20340;-77
2021/07/01 02:50:14;;;;;;;6.90;6.00;;;15.50;86.90;;;;;;5012439;28;20497;-77
2021/07/01 02:52:39;;;;;;;11.00;7.20;;;15.50;86.90;;;;;;5013684;28;20167;-77
2021/07/01 02:55:08;;;;;;;7.70;5.40;;;15.40;86.50;;;;;;5012512;28;20175;-77
2021/07/01 02:57:36;;;;;;;8.00;4.43;;;15.50;86.90;;;;;;5017190;28;20442;-78
2021/07/01 03:00:08;;;;;;;6.63;5.20;;;15.50;86.80;;;;;;5029294;28;20523;-78
2021/07/01 03:02:45;;;;;;;6.57;4.90;;;15.50;86.40;;;;;;5039032;28;20424;-78
2021/07/01 03:05:33;;;;;;;9.77;6.33;;;15.50;86.20;;;;;;5040501;28;20472;-78
2021/07/01 03:07:59;;;;;;;7.80;5.47;;;15.50;85.70;;;;;;5040591;28;20969;-76
2021/07/01 03:10:27;;;;;;;11.67;5.83;;;15.40;86.20;;;;;;5052362;28;20456;-78
2021/07/01 03:12:58;;;;;;;8.70;5.60;;;15.40;86.40;;;;;;5051880;28;20397;-76
2021/07/01 03:15:24;;;;;;;6.90;5.60;;;15.40;86.30;;;;;;5067527;28;20417;-77
2021/07/01 03:17:50;;;;;;;12.37;7.03;;;15.40;86.50;;;;;;5048619;28;20475;-77
2021/07/01 03:20:18;;;;;;;10.80;6.53;;;15.40;86.40;;;;;;5051596;28;20170;-77
2021/07/01 03:23:03;;;;;;;11.80;6.27;;;15.40;86.20;;;;;;5053352;28;20416;-76
2021/07/01 03:25:29;;;;;;;9.33;6.13;;;15.40;86.00;;;;;;5049949;28;20429;-78
2021/07/01 03:27:56;;;;;;;14.07;12.23;;;15.40;85.90;;;;;;5061594;28;20494;-77
2021/07/01 03:30:22;;;;;;;9.67;6.23;;;15.40;85.90;;;;;;5042665;28;20702;-77
2021/07/01 03:32:48;;;;;;;7.90;5.97;;;15.40;86.10;;;;;;5045495;28;20410;-75
2021/07/01 03:35:13;;;;;;;7.67;5.63;;;15.40;86.00;;;;;;5049688;28;20404;-77
2021/07/01 03:37:58;;;;;;;11.00;5.90;;;15.40;86.20;;;;;;5045194;28;20181;-77
2021/07/01 03:40:50;;;;;;;9.43;6.47;;;15.40;85.90;;;;;;5051060;28;20428;-77
2021/07/01 03:43:17;;;;;;;10.53;7.40;;;15.50;86.10;;;;;;5049505;28;20401;-77
2021/07/01 03:45:47;;;;;;;10.90;6.67;;;15.50;86.00;;;;;;5041008;28;20485;-77
2021/07/01 03:48:13;;;;;;;9.90;6.20;;;15.50;85.70;;;;;;5028929;28;20458;-77
2021/07/01 03:50:58;;;;;;;10.47;5.70;;;15.40;85.70;;;;;;5032775;28;20421;-77
2021/07/01 03:53:35;;;;;;;10.60;6.83;;;15.50;85.80;;;;;;5065821;28;20409;-76
2021/07/01 03:56:01;;;;;;;8.50;6.50;;;15.50;85.80;;;;;;5050790;28;20433;-77
2021/07/01 03:58:28;;;;;;;11.23;6.33;;;15.50;85.50;;;;;;5048413;28;20413;-77
2021/07/01 04:01:10;;;;;;;9.50;5.87;;;15.50;85.50;;;;;;5045562;28;20933;-77
2021/07/01 04:03:37;;;;;;;8.70;6.60;;;15.50;85.30;;;;;;5046998;28;20416;-77
2021/07/01 04:06:15;;;;;;;13.60;6.73;;;15.50;85.50;;;;;;5035837;28;20444;-77
2021/07/01 04:08:40;;;;;;;7.50;5.87;;;15.50;85.70;;;;;;5034130;28;20409;-77
2021/07/01 04:11:09;;;;;;;10.20;6.53;;;15.50;85.60;;;;;;5017604;28;20193;-79
2021/07/01 04:13:36;;;;;;;11.60;7.43;;;15.50;85.50;;;;;;5033996;28;20482;-79
2021/07/01 04:16:20;;;;;;;10.43;6.40;;;15.60;85.80;;;;;;5033554;28;20503;-77
2021/07/01 04:19:04;;;;;;;15.03;7.67;;;15.70;86.00;;;;;;5033360;28;20471;-77
2021/07/01 04:21:48;;;;;;;12.50;8.07;;;15.70;85.50;;;;;;5026098;28;20416;-77
2021/07/01 04:24:32;;;;;;;10.90;7.57;;;15.60;86.10;;;;;;5032331;28;20540;-76
2021/07/01 04:27:04;;;;;;;14.80;9.97;;;15.50;86.30;;;;;;5030212;28;20511;-76
2021/07/01 04:29:39;;;;;;;17.47;10.07;;;15.50;87.00;;;;;;5025876;28;20405;-76
2021/07/01 04:32:05;;;;;;;15.53;9.37;;;15.50;87.80;;;;;;5011544;28;20409;-77
2021/07/01 04:34:31;;;;;;;12.43;8.83;;;15.50;88.10;;;;;;5012075;28;20414;-77
2021/07/01 04:37:02;;;;;;;16.20;9.17;;;15.50;88.00;;;;;;5011971;28;20773;-77
2021/07/01 04:39:34;;;;;;;23.27;10.87;;;15.50;88.30;;;;;;5022831;28;20476;-77
2021/07/01 04:42:09;;;;;;;17.83;10.27;;;15.50;88.30;;;;;;5017632;28;20451;-77
2021/07/01 04:44:35;;;;;;;16.60;9.70;;;15.40;88.30;;;;;;5031058;28;21007;-76
2021/07/01 04:47:03;;;;;;;15.70;9.53;;;15.40;88.90;;;;;;5031617;28;20449;-77
2021/07/01 04:49:28;;;;;;;20.43;10.40;;;15.30;88.90;;;;;;5016267;28;20957;-78
2021/07/01 04:52:12;;;;;;;18.00;9.40;;;15.40;89.30;;;;;;5012509;28;20183;-79
2021/07/01 04:54:57;;;;;;;21.23;10.30;;;15.30;89.40;;;;;;5021337;28;20474;-77
2021/07/01 04:57:41;;;;;;;13.00;9.27;;;15.30;89.60;;;;;;5029391;28;20417;-78
2021/07/01 05:00:07;;;;;;;13.70;9.20;;;15.30;89.60;;;;;;5026744;28;20426;-77
2021/07/01 05:02:53;;;;;;;16.80;9.37;;;15.30;89.50;;;;;;5028599;28;20192;-77
2021/07/01 05:05:20;;;;;;;16.37;9.60;;;15.30;89.60;;;;;;5026118;28;20460;-77
2021/07/01 05:07:53;;;;;;;14.70;9.10;;;15.30;89.80;;;;;;5020178;28;20464;-76
2021/07/01 05:10:20;;;;;;;18.80;9.50;;;15.30;89.70;;;;;;5022590;28;20424;-77
2021/07/01 05:12:50;;;;;;;15.23;8.77;;;15.30;89.80;;;;;;5036543;28;20802;-74
2021/07/01 05:15:17;;;;;;;28.90;9.60;;;15.40;89.70;;;;;;5034761;28;20424;-78
2021/07/01 05:17:43;;;;;;;18.77;10.47;;;15.40;89.50;;;;;;5039319;28;20407;-77
2021/07/01 05:20:09;;;;;;;18.87;11.00;;;15.40;89.10;;;;;;5034967;28;20401;-77
2021/07/01 05:22:53;;;;;;;11.80;8.80;;;15.50;89.30;;;;;;5025662;28;20162;-77
2021/07/01 05:25:38;;;;;;;20.43;9.13;;;15.50;88.60;;;;;;5029128;28;20641;-77
2021/07/01 05:28:22;;;;;;;15.30;9.00;;;15.60;88.30;;;;;;5031587;28;20478;-77
2021/07/01 05:31:06;;;;;;;21.53;9.33;;;15.60;88.20;;;;;;5036497;28;20443;-78
2021/07/01 05:33:50;;;;;;;18.77;9.23;;;15.60;87.80;;;;;;5032509;28;20443;-78
2021/07/01 05:36:16;;;;;;;13.80;9.40;;;15.60;87.10;;;;;;5026737;28;20453;-76
2021/07/01 05:38:45;;;;;;;15.27;8.80;;;15.60;87.20;;;;;;4997433;28;20191;-76
2021/07/01 05:41:17;;;;;;;20.70;8.63;;;15.60;87.50;;;;;;5014375;28;20421;-77
2021/07/01 05:43:42;;;;;;;20.57;9.10;;;15.60;87.50;;;;;;5014025;28;20432;-76
2021/07/01 05:46:22;;;;;;;16.33;9.30;;;15.60;87.30;;;;;;5022475;28;20323;-77
2021/07/01 05:48:47;;;;;;;12.50;8.40;;;15.60;87.40;;;;;;4999882;28;20492;-77
2021/07/01 05:51:14;;;;;;;17.63;7.83;;;15.50;87.60;;;;;;5015998;28;20170;-78
2021/07/01 05:56:26;;;;;;;14.50;9.43;;;15.50;87.10;;;;;;5022223;28;20962;-75
2021/07/01 05:58:52;;;;;;;18.63;9.20;;;15.40;87.10;;;;;;5028967;28;20444;-75
2021/07/01 06:01:18;;;;;;;18.97;8.10;;;15.50;87.30;;;;;;5019911;28;20900;-75
2021/07/01 06:03:44;;;;;;;15.50;9.30;;;15.40;87.10;;;;;;5030121;28;20493;-75
2021/07/01 06:06:44;;;;;;;16.07;7.87;;;15.40;87.20;;;;;;5024938;28;20215;-76
2021/07/01 06:09:24;;;;;;;13.73;7.83;;;15.40;87.10;;;;;;5012726;28;20414;-75
2021/07/01 06:11:58;;;;;;;14.10;7.90;;;15.50;87.00;;;;;;5031053;28;20422;-75
2021/07/01 06:14:25;;;;;;;16.30;9.00;;;15.40;87.40;;;;;;5033273;28;20405;-75
2021/07/01 06:16:53;;;;;;;14.00;7.60;;;15.50;87.30;;;;;;5033837;28;20432;-75
2021/07/01 06:19:19;;;;;;;21.07;8.27;;;15.50;87.50;;;;;;5033925;28;20483;-76
2021/07/01 06:21:47;;;;;;;14.60;7.40;;;15.50;87.40;;;;;;5033901;28;20416;-76
2021/07/01 06:24:14;;;;;;;14.93;7.90;;;15.60;87.50;;;;;;5015706;28;20842;-75
2021/07/01 06:26:39;;;;;;;13.70;6.50;;;15.60;88.00;;;;;;5027531;28;20500;-75
2021/07/01 06:29:05;;;;;;;11.70;6.53;;;15.70;86.80;;;;;;5029148;28;20944;-74
2021/07/01 06:31:32;;;;;;;11.43;7.43;;;15.70;85.90;;;;;;5019007;28;20202;-75
2021/07/01 06:33:57;;;;;;;12.80;7.33;;;15.70;84.80;;;;;;5014250;28;20167;-75
2021/07/01 06:36:26;;;;;;;15.90;7.33;;;15.70;84.40;;;;;;5013590;28;20496;-76
2021/07/01 06:39:13;;;;;;;15.93;8.87;;;15.80;84.50;;;;;;5015755;28;20270;-76
2021/07/01 06:42:01;;;;;;;12.93;7.53;;;15.80;83.80;;;;;;5013445;28;20401;-77
2021/07/01 06:44:46;;;;;;;17.50;8.23;;;15.90;83.60;;;;;;5013023;28;20397;-76
2021/07/01 06:47:32;;;;;;;13.40;7.70;;;15.90;83.50;;;;;;5024596;28;21254;-76
2021/07/01 06:50:19;;;;;;;10.70;8.37;;;15.90;82.90;;;;;;5013769;28;20425;-77
2021/07/01 06:53:04;;;;;;;15.03;7.33;;;15.90;83.00;;;;;;5025195;28;20416;-76
2021/07/01 06:55:52;;;;;;;18.30;8.00;;;15.90;82.90;;;;;;5017576;28;20491;-76
2021/07/01 06:58:25;;;;;;;12.73;6.87;;;15.90;82.80;;;;;;5031778;28;20433;-77
2021/07/01 07:00:51;;;;;;;10.73;6.73;;;15.80;83.20;;;;;;5020974;28;20432;-76
2021/07/01 07:03:19;;;;;;;10.83;5.40;;;15.80;83.90;;;;;;5024611;28;20663;-76
2021/07/01 07:05:47;;;;;;;11.87;6.50;;;15.80;85.00;;;;;;5020025;28;20205;-76
2021/07/01 07:08:14;;;;;;;9.50;6.33;;;15.70;85.00;;;;;;5013064;28;20446;-77
2021/07/01 07:10:42;;;;;;;10.00;4.93;;;15.80;85.00;;;;;;5013985;28;20457;-75
2021/07/01 07:13:09;;;;;;;7.63;4.93;;;15.80;85.10;;;;;;5012140;28;20873;-77
2021/07/01 07:15:34;;;;;;;6.50;4.60;;;15.80;84.20;;;;;;5011359;28;20464;-76
2021/07/01 07:18:24;;;;;;;8.23;5.10;;;15.80;83.70;;;;;;5016718;28;20481;-76
2021/07/01 07:21:14;;;;;;;8.90;4.70;;;15.80;83.70;;;;;;5023973;28;20163;-76
2021/07/01 07:23:40;;;;;;;13.27;4.53;;;15.80;84.10;;;;;;5014409;28;20426;-76
2021/07/01 07:26:19;;;;;;;11.60;5.60;;;15.70;84.00;;;;;;5012312;28;20432;-76
2021/07/01 07:28:50;;;;;;;6.07;4.57;;;15.70;84.50;;;;;;5014982;28;20421;-78
2021/07/01 07:31:29;;;;;;;13.20;5.30;;;15.70;84.50;;;;;;5018681;28;20503;-77
2021/07/01 07:33:56;;;;;;;8.07;5.67;;;15.70;84.20;;;;;;5027630;28;20432;-76
2021/07/01 07:36:25;;;;;;;9.10;4.80;;;15.80;84.40;;;;;;5014102;28;20480;-77
2021/07/01 07:38:52;;;;;;;8.37;4.40;;;15.90;84.20;;;;;;5032974;28;20925;-77
2021/07/01 07:41:20;;;;;;;5.63;4.90;;;16.00;84.10;;;;;;5032625;28;20409;-77
2021/07/01 07:43:47;;;;;;;11.13;4.67;;;16.10;82.20;;;;;;5034248;28;20475;-77
2021/07/01 07:46:14;;;;;;;10.20;4.77;;;16.20;81.80;;;;;;5022173;28;20430;-75
2021/07/01 07:48:40;;;;;;;11.70;5.87;;;16.20;81.50;;;;;;5033639;28;20409;-76
2021/07/01 07:51:09;;;;;;;7.90;5.20;;;16.30;81.30;;;;;;5027490;28;20890;-77
2021/07/01 07:53:37;;;;;;;17.30;5.00;;;16.30;80.70;;;;;;5011470;28;20410;-76
2021/07/01 07:56:10;;;;;;;11.30;6.43;;;16.40;80.20;;;;;;5015155;28;20838;-76
2021/07/01 07:58:41;;;;;;;11.63;4.90;;;16.40;79.20;;;;;;5013835;28;20427;-76
2021/07/01 08:01:09;;;;;;;7.43;4.90;;;16.40;78.90;;;;;;5015447;28;20406;-77
2021/07/01 08:03:38;;;;;;;11.27;6.00;;;16.50;79.20;;;;;;5016562;28;20417;-77
2021/07/01 08:06:05;;;;;;;13.47;5.43;;;16.60;78.60;;;;;;5033216;28;20540;-75
2021/07/01 08:08:32;;;;;;;9.30;5.03;;;16.60;78.70;;;;;;5010833;28;20453;-76
2021/07/01 08:11:00;;;;;;;8.70;4.77;;;16.80;77.60;;;;;;5026404;28;20417;-75
2021/07/01 08:13:28;;;;;;;12.83;4.80;;;16.80;76.70;;;;;;5031873;28;20398;-75
2021/07/01 08:15:55;;;;;;;14.27;5.03;;;16.90;76.30;;;;;;5031233;28;20895;-76
2021/07/01 08:18:38;;;;;;;12.70;6.17;;;17.10;76.50;;;;;;5028082;28;20791;-78
2021/07/01 08:21:14;;;;;;;16.30;5.10;;;17.30;75.50;;;;;;5037532;28;20424;-79
2021/07/01 08:23:42;;;;;;;11.63;4.60;;;17.50;74.00;;;;;;5046587;28;20433;-76
2021/07/01 08:26:09;;;;;;;12.70;5.17;;;17.70;71.90;;;;;;5049251;28;20445;-75
2021/07/01 08:28:35;;;;;;;14.63;6.00;;;17.80;72.80;;;;;;5030254;28;20811;-77
2021/07/01 08:31:15;;;;;;;7.03;4.60;;;18.00;71.20;;;;;;5010840;28;20416;-77
2021/07/01 08:33:43;;;;;;;11.40;4.57;;;18.00;69.70;;;;;;5014904;28;20416;-77
2021/07/01 08:36:14;;;;;;;11.83;4.43;;;18.00;70.70;;;;;;5029981;28;20508;-75
2021/07/01 08:38:41;;;;;;;14.10;3.70;;;18.10;69.50;;;;;;5011817;28;20417;-76
2021/07/01 08:41:13;;;;;;;12.90;5.83;;;18.20;68.90;;;;;;5023653;28;20421;-76
2021/07/01 08:43:43;;;;;;;6.77;4.80;;;18.10;69.10;;;;;;5030693;28;20783;-78
2021/07/01 08:46:13;;;;;;;9.23;4.40;;;18.10;68.20;;;;;;5026792;28;20444;-76
2021/07/01 08:49:01;;;;;;;11.00;5.73;;;18.10;69.70;;;;;;5020865;28;20539;-77
2021/07/01 08:51:43;;;;;;;6.73;4.93;;;18.10;67.80;;;;;;5024777;28;20469;-77
2021/07/01 08:54:33;;;;;;;13.10;5.77;;;18.00;70.00;;;;;;5027496;28;20583;-77
2021/07/01 08:57:00;;;;;;;8.87;4.67;;;18.00;68.90;;;;;;5027503;28;20446;-77
2021/07/01 08:59:37;;;;;;;8.47;4.40;;;18.10;68.20;;;;;;5030895;28;20425;-77
2021/07/01 09:02:08;;;;;;;6.00;4.30;;;18.10;66.90;;;;;;5021368;28;20410;-77
2021/07/01 09:04:47;;;;;;;13.03;5.20;;;18.00;68.40;;;;;;5012418;28;20411;-76
2021/07/01 09:07:19;;;;;;;13.53;4.50;;;18.00;67.90;;;;;;5021791;28;20495;-77
2021/07/01 09:10:03;;;;;;;6.10;4.63;;;17.90;68.00;;;;;;5050799;28;20549;-78
2021/07/01 09:12:30;;;;;;;10.77;4.83;;;17.80;68.20;;;;;;5026677;28;20441;-75
2021/07/01 09:15:05;;;;;;;10.60;4.70;;;17.60;67.70;;;;;;5035269;28;20420;-78
2021/07/01 09:17:33;;;;;;;15.80;5.63;;;17.50;69.10;;;;;;5028998;28;20459;-77
2021/07/01 09:20:01;;;;;;;8.00;5.33;;;17.40;68.90;;;;;;5054147;28;20417;-77
2021/07/01 09:22:28;;;;;;;9.10;5.20;;;17.40;69.20;;;;;;5042000;28;20421;-77
2021/07/01 09:24:55;;;;;;;8.93;5.00;;;17.40;70.40;;;;;;5041949;28;20417;-77
2021/07/01 09:27:25;;;;;;;10.80;6.90;;;17.50;69.50;;;;;;5034653;28;20460;-78
2021/07/01 09:30:06;;;;;;;17.83;6.93;;;17.50;69.70;;;;;;5042000;28;20476;-77
2021/07/01 09:32:35;;;;;;;8.40;6.10;;;17.60;69.40;;;;;;5040430;28;20461;-75
2021/07/01 09:35:02;;;;;;;10.20;5.80;;;17.60;69.00;;;;;;5035458;28;20779;-75
2021/07/01 09:37:42;;;;;;;8.60;5.60;;;17.50;68.80;;;;;;5015398;28;20446;-76
2021/07/01 09:40:10;;;;;;;11.73;6.47;;;17.50;68.90;;;;;;5025970;28;20461;-75
2021/07/01 09:42:37;;;;;;;10.50;5.70;;;17.50;68.30;;;;;;5019192;28;20424;-74
2021/07/01 09:45:07;;;;;;;13.10;6.57;;;17.60;69.50;;;;;;5040240;28;20512;-75
2021/07/01 09:47:38;;;;;;;13.10;6.50;;;17.70;68.30;;;;;;5034873;28;20936;-75
2021/07/01 09:50:05;;;;;;;7.77;5.50;;;17.80;67.20;;;;;;5043021;28;20420;-77
2021/07/01 09:52:34;;;;;;;15.23;9.00;;;17.80;66.90;;;;;;5027984;28;20405;-76
2021/07/01 09:55:05;;;;;;;10.20;6.10;;;17.80;68.40;;;;;;5038676;28;20969;-78
2021/07/01 09:57:44;;;;;;;8.00;4.50;;;17.70;67.00;;;;;;5021168;28;20867;-77
2021/07/01 10:00:12;;;;;;;9.20;4.67;;;17.50;68.00;;;;;;5023874;28;20513;-76
2021/07/01 10:02:43;;;;;;;9.53;5.83;;;17.30;68.40;;;;;;5014959;28;20513;-77
2021/07/01 10:05:24;;;;;;;10.60;5.07;;;17.30;69.30;;;;;;5014788;28;20446;-76
2021/07/01 10:07:50;;;;;;;10.27;5.40;;;17.10;69.40;;;;;;5014754;28;20195;-78
2021/07/01 10:10:17;;;;;;;12.40;6.70;;;17.10;70.60;;;;;;5015345;28;20828;-76
2021/07/01 10:12:53;;;;;;;14.63;7.30;;;17.00;70.30;;;;;;5016928;28;20217;-77
2021/07/01 10:15:38;;;;;;;10.40;5.53;;;17.00;71.40;;;;;;5015048;28;20468;-79
2021/07/01 10:18:10;;;;;;;12.43;5.30;;;17.00;70.50;;;;;;5021038;28;20409;-77
2021/07/01 10:20:51;;;;;;;17.13;9.73;;;17.00;70.30;;;;;;5019260;28;20751;-77
2021/07/01 10:23:20;;;;;;;8.17;5.60;;;16.90;70.90;;;;;;5038023;28;20417;-78
2021/07/01 10:25:48;;;;;;;13.20;5.10;;;16.90;70.20;;;;;;5025735;28;20974;-77
2021/07/01 10:28:16;;;;;;;7.73;5.40;;;16.90;70.60;;;;;;5032538;28;21032;-78
2021/07/01 10:30:43;;;;;;;13.77;6.53;;;16.80;70.90;;;;;;5032615;28;20508;-77
2021/07/01 10:33:32;;;;;;;12.10;6.60;;;16.80;70.50;;;;;;5010147;28;20422;-76
2021/07/01 10:36:01;;;;;;;16.00;6.57;;;16.80;71.20;;;;;;5020586;28;20440;-77
2021/07/01 10:38:40;;;;;;;23.20;12.60;;;16.80;72.60;;;;;;5032958;28;20424;-77
2021/07/01 10:41:06;;;;;;;6.63;5.27;;;16.80;71.50;;;;;;5034487;28;20405;-76
2021/07/01 10:43:39;;;;;;;14.40;5.83;;;16.80;70.80;;;;;;5028269;28;20438;-76
2021/07/01 10:46:06;;;;;;;9.77;4.90;;;16.80;71.00;;;;;;5022242;28;20437;-76
2021/07/01 10:48:32;;;;;;;9.93;5.30;;;16.90;71.30;;;;;;5022740;28;20514;-77
2021/07/01 10:51:12;;;;;;;13.17;5.50;;;16.90;70.80;;;;;;5015025;28;20418;-76
2021/07/01 10:53:43;;;;;;;12.20;4.87;;;16.80;70.90;;;;;;5029114;28;20181;-81
2021/07/01 10:56:23;;;;;;;10.80;5.70;;;16.90;70.80;;;;;;5027331;28;20449;-82
2021/07/01 10:58:57;;;;;;;11.80;4.90;;;16.90;71.00;;;;;;5042174;28;20437;-80
2021/07/01 11:01:30;;;;;;;8.30;5.50;;;17.00;71.30;;;;;;5033197;28;20420;-81
2021/07/01 11:04:13;;;;;;;11.47;6.57;;;17.10;70.60;;;;;;5029345;28;20469;-80
2021/07/01 11:06:41;;;;;;;16.93;4.90;;;17.20;71.40;;;;;;5028448;28;20453;-82
2021/07/01 11:09:10;;;;;;;10.60;5.50;;;17.30;70.70;;;;;;5066641;28;20440;-82
2021/07/01 11:11:39;;;;;;;11.00;7.10;;;17.30;69.80;;;;;;5036588;28;20413;-81
2021/07/01 11:14:13;;;;;;;7.90;6.50;;;17.30;71.00;;;;;;5028078;28;20420;-81
2021/07/01 11:16:46;;;;;;;14.47;6.37;;;17.30;71.10;;;;;;5028943;28;20586;-80
2021/07/01 11:19:17;;;;;;;9.80;5.73;;;17.50;70.40;;;;;;5047239;28;20420;-81
2021/07/01 11:21:51;;;;;;;12.57;5.20;;;17.50;68.80;;;;;;5058325;28;20413;-81
2021/07/01 11:24:26;;;;;;;15.13;6.60;;;17.50;69.40;;;;;;5038111;28;20422;-81
2021/07/01 11:26:57;;;;;;;12.37;5.73;;;17.60;68.90;;;;;;5038866;28;20453;-81
2021/07/01 11:29:37;;;;;;;8.47;5.63;;;17.70;69.90;;;;;;5028675;28;37654;-81
2021/07/01 11:33:05;;;;;;;10.43;6.10;;;17.70;69.50;;;;;;5054159;28;20462;-80
2021/07/01 11:36:08;;;;;;;11.27;6.23;;;17.80;68.80;;;;;;4993556;28;20551;-82
2021/07/01 11:38:34;;;;;;;15.83;7.23;;;17.70;68.40;;;;;;4986300;28;20434;-81
2021/07/01 11:41:03;;;;;;;9.17;4.67;;;17.70;68.70;;;;;;5005587;28;20423;-82
2021/07/01 11:43:30;;;;;;;9.90;5.13;;;17.70;68.60;;;;;;5020829;28;20468;-81
2021/07/01 11:45:57;;;;;;;8.73;4.27;;;17.70;68.60;;;;;;4994865;28;20459;-82
2021/07/01 11:48:25;;;;;;;6.87;4.30;;;17.60;68.40;;;;;;5019429;28;20465;-81
2021/07/01 11:50:53;;;;;;;10.80;5.27;;;17.60;68.20;;;;;;5022617;28;20421;-81
2021/07/01 11:53:20;;;;;;;9.40;4.87;;;17.50;68.60;;;;;;5019718;28;20478;-81
2021/07/01 11:55:47;;;;;;;9.10;5.60;;;17.60;69.40;;;;;;5026007;28;20418;-82
2021/07/01 11:58:14;;;;;;;8.67;5.20;;;17.60;69.30;;;;;;5025194;28;20456;-83
2021/07/01 12:00:41;;;;;;;8.63;5.57;;;17.60;68.80;;;;;;5010583;28;20823;-82
2021/07/01 12:03:08;;;;;;;10.23;5.53;;;17.60;68.50;;;;;;5028404;28;20426;-83
2021/07/01 12:05:34;;;;;;;10.23;5.03;;;17.60;69.50;;;;;;5029635;28;20501;-83
2021/07/01 12:08:03;;;;;;;7.33;5.10;;;17.60;69.80;;;;;;5027939;28;20474;-83
2021/07/01 12:10:58;;;;;;;8.40;5.80;;;17.60;69.00;;;;;;5029464;28;20533;-85
2021/07/01 12:13:34;;;;;;;7.90;5.83;;;17.60;69.40;;;;;;5009415;28;20406;-82
2021/07/01 12:16:01;;;;;;;6.40;4.83;;;17.50;69.00;;;;;;5008635;28;20894;-81
2021/07/01 12:18:45;;;;;;;9.27;6.90;;;17.40;69.20;;;;;;5024622;28;20422;-83
2021/07/01 12:21:12;;;;;;;10.60;6.33;;;17.40;70.80;;;;;;5027489;28;20417;-84
2021/07/01 12:24:07;;;;;;;7.67;4.73;;;17.40;69.70;;;;;;5025331;28;20444;-82
2021/07/01 12:26:39;;;;;;;15.43;5.37;;;17.40;69.60;;;;;;5024701;28;20438;-81
2021/07/01 12:29:20;;;;;;;9.20;6.30;;;17.30;69.70;;;;;;5022357;28;20408;-82
2021/07/01 12:31:47;;;;;;;11.70;5.47;;;17.30;70.50;;;;;;5022025;28;20425;-82
2021/07/01 12:34:25;;;;;;;10.00;6.40;;;17.30;70.00;;;;;;5021806;28;20411;-83
2021/07/01 12:37:05;;;;;;;12.67;7.13;;;17.30;69.80;;;;;;5014053;28;20465;-82
2021/07/01 12:39:39;;;;;;;9.87;5.60;;;17.20;70.80;;;;;;5008027;28;20505;-82
2021/07/01 12:42:05;;;;;;;11.60;5.80;;;17.30;71.00;;;;;;5007988;28;20433;-83
2021/07/01 12:44:35;;;;;;;13.97;8.53;;;17.30;70.40;;;;;;5018448;28;20425;-81
2021/07/01 12:47:28;;;;;;;14.90;8.13;;;17.30;71.50;;;;;;5016948;28;20266;-82
2021/07/01 12:50:34;;;;;;;10.43;8.00;;;17.30;72.80;;;;;;4988138;28;20426;-83
2021/07/01 12:53:00;;;;;;;13.63;9.17;;;17.40;74.00;;;;;;4975899;28;20440;-81
2021/07/01 12:55:26;;;;;;;11.40;7.53;;;17.40;75.20;;;;;;5002726;28;20482;-80
2021/07/01 12:57:52;;;;;;;23.63;15.73;;;17.50;74.80;;;;;;5018755;28;20177;-82
2021/07/01 13:00:18;;;;;;;23.13;12.20;;;17.50;74.60;;;;;;5019144;28;20513;-82
2021/07/01 13:02:56;;;;;;;12.13;8.10;;;17.50;75.00;;;;;;5022432;23;20502;-82
2021/07/01 13:05:22;;;;;;;15.27;10.43;;;17.40;76.10;;;;;;4995508;28;20180;-82
2021/07/01 13:07:48;;;;;;;13.40;8.70;;;17.30;77.10;;;;;;4984769;28;20498;-82